Meteo Giornale » Osservazioni meteo Messico » Mexico City-Licenci

ore: 17:43 - Osservazioni Meteo Mexico City-Licenci
Lat. 19° 26' N Lon. 99° 6' W Alt. 2238 metri s.l.m.

coperto America/Mexico_City

21 °C

Coperto

Temp. 24 Ore

12 °C

25 °C

Est/Sud-Est

16.7 Km/h

Dew point 9 °C

Umidità 46 %

Visibilità  8 Km

Il sole sorge alle ore 07:31

Il sole tramonta alle ore 19:10

Data e Ora Cielo e Fenomeni T °C DP °C Um. % Pres. hPa Vis. km Vento km/h
Oggi h: 17:43 coperto Coperto 21 9 46 1024 8 E/SE 16.7
Oggi h: 17:40 coperto Coperto 22 10 46 1024 8 SE 24
Oggi h: 16:45 coperto Coperto 24 5 29 1023 8 N/NO 9.3
Oggi h: 15:41 coperto Coperto 24 5 29 1023 8 NO 7.4
Oggi h: 14:41 nuvoloso Nuvoloso 25 6 29 1024 10 N 0
Oggi h: 13:52 sereno Sereno 24 8 35 1025 10 NE 13
Oggi h: 13:39 sereno Sereno 24 8 35 1026 10 E 9.3
Oggi h: 12:43 sereno Sereno 22 10 46 1027 8 E/NE 7.4
Oggi h: 12:34 sereno Sereno 22 10 46 1027 8 NE 9.3
Oggi h: 11:45 sereno Sereno 20 10 52 1028 8 E/SE 11.1
Oggi h: 11:19 sereno Sereno 20 10 52 1028 10 E 7.4
Oggi h: 10:46 sereno Sereno 18 10 59 1028 10 E/SE 7.4
Oggi h: 09:45 sereno Sereno 16 10 67 1028 8 N 0
Oggi h: 09:19 sereno Sereno 15 10 72 1028 8 E/NE 9.3
Oggi h: 08:43 sereno Sereno 13 9 76 1028 8 E 9.3
Oggi h: 07:41 poco_nuvoloso Poco Nuvoloso 12 9 81 1027 8 E 11.1
Oggi h: 06:48 sereno Sereno 12 10 87 1027 11 E/NE 9.3
Oggi h: 05:49 nuvoloso Nuvoloso 13 10 81 1027 13 N 5.5
Oggi h: 04:48 poco_nuvoloso Poco Nuvoloso 14 9 71 1027 10 N 5.5
Oggi h: 03:51 nuvoloso Nuvoloso 15 9 67 1027 10 N 3.7
Oggi h: 02:46 molto_nuvoloso Molto Nuvoloso 16 9 63 1027 19 O/NO 9.3
Oggi h: 01:44 nuvoloso Nuvoloso 16 9 63 1028 19 O/NO 11.1
Oggi h: 00:46 molto_nuvoloso Molto Nuvoloso 17 9 59 1028 10 O/NO 11.1
Ieri h: 23:43 molto_nuvoloso Molto Nuvoloso 17 9 59 1028 10 NO 9.3
Ieri h: 22:43 molto_nuvoloso Molto Nuvoloso 18 10 59 1028 10 N/NO 11.1
Ieri h: 21:45 molto_nuvoloso Molto Nuvoloso 19 9 52 1028 10 N 11.1
Ieri h: 20:47 molto_nuvoloso Molto Nuvoloso 19 10 55 1027 11 N/NE 24
Ieri h: 20:45 molto_nuvoloso Molto Nuvoloso 20 11 56 1027 11 NE 25.9
Ieri h: 19:49 coperto Coperto 22 9 43 1026 11 N/NE 25.9
Ieri h: 18:40 coperto Coperto 23 7 35 1025 10 N/NE 16.7